createdAt,value
2023-02-04T14:55:40.677Z,5.07
2023-02-04T14:58:27.937Z,5.11
2023-02-04T15:01:14.677Z,5.30
2023-02-04T15:04:00.711Z,5.28
2023-02-04T15:06:46.921Z,5.27
2023-02-04T15:09:33.161Z,5.24
2023-02-04T15:12:19.147Z,5.34
2023-02-04T15:15:06.032Z,5.36
2023-02-04T15:17:52.356Z,5.27
2023-02-04T15:20:38.615Z,5.17
2023-02-04T15:23:24.701Z,4.88
2023-02-04T15:26:10.689Z,5.18
2023-02-04T15:28:56.766Z,5.07
2023-02-04T15:31:42.598Z,5.10
2023-02-04T15:34:28.557Z,5.04
2023-02-04T15:37:14.358Z,5.13
2023-02-04T15:40:00.913Z,4.99
2023-02-04T15:42:47.200Z,5.18
2023-02-04T15:45:33.025Z,5.26
2023-02-04T15:48:20.223Z,5.05
2023-02-04T15:51:06.234Z,5.14
2023-02-04T15:53:52.111Z,5.18
2023-02-04T15:56:39.194Z,5.06
2023-02-04T15:59:24.990Z,4.96
2023-02-04T16:02:11.519Z,5.01
2023-02-04T16:04:58.598Z,4.99
2023-02-04T16:07:44.275Z,4.81
2023-02-04T16:10:30.404Z,4.74
2023-02-04T16:13:16.800Z,4.69
2023-02-04T16:16:03.008Z,4.71
2023-02-04T16:18:48.756Z,4.65
2023-02-04T16:21:34.670Z,4.54
2023-02-04T16:24:21.305Z,4.58
2023-02-04T16:27:07.492Z,4.49
2023-02-04T16:29:56.479Z,4.49
2023-02-04T16:32:42.584Z,4.56
2023-02-04T16:35:28.925Z,4.52
2023-02-04T16:38:18.526Z,4.65
2023-02-04T16:41:05.502Z,4.36
2023-02-04T16:43:52.177Z,4.44
2023-02-04T16:46:38.317Z,4.45
2023-02-04T16:49:24.144Z,4.45
2023-02-04T16:52:10.051Z,4.53
2023-02-04T16:54:55.957Z,4.36
2023-02-04T16:57:43.236Z,4.44
2023-02-04T17:00:29.218Z,4.36
2023-02-04T17:03:15.606Z,4.38
2023-02-04T17:06:02.245Z,4.28
2023-02-04T17:08:48.228Z,4.16
2023-02-04T17:11:34.139Z,4.20
2023-02-04T17:14:22.465Z,4.23
2023-02-04T17:17:09.546Z,4.14
2023-02-04T17:19:55.882Z,3.98
2023-02-04T17:22:41.822Z,4.06
2023-02-04T17:25:27.673Z,3.94
2023-02-04T17:28:13.538Z,3.99
2023-02-04T17:30:59.202Z,3.96
2023-02-04T17:33:45.867Z,3.99
2023-02-04T17:36:32.572Z,3.97
2023-02-04T17:39:18.486Z,3.78
2023-02-04T17:42:04.215Z,3.85
2023-02-04T17:44:50.255Z,3.88
2023-02-04T17:47:40.005Z,3.74
2023-02-04T17:50:26.042Z,3.85
2023-02-04T17:53:12.223Z,3.72
2023-02-04T17:55:58.404Z,3.70
2023-02-04T17:58:45.893Z,3.73
2023-02-04T18:01:32.180Z,3.47
2023-02-04T18:04:18.619Z,3.47
2023-02-04T18:07:08.812Z,3.71
2023-02-04T18:10:22.191Z,3.50
2023-02-04T18:13:22.854Z,3.48
2023-02-04T19:00:18.063Z,1.64
2023-02-04T19:03:21.297Z,2.01
2023-02-04T19:06:33.472Z,2.06
2023-02-04T19:09:25.404Z,2.31
2023-02-04T19:12:22.135Z,2.53
2023-02-04T19:15:16.667Z,2.54
2023-02-04T19:18:16.868Z,2.45
2023-02-04T19:21:28.809Z,2.62
2023-02-04T19:24:21.591Z,2.47
2023-02-04T19:27:22.819Z,2.68
2023-02-04T19:30:27.675Z,2.56
2023-02-04T19:33:21.164Z,2.61
2023-02-04T19:36:39.922Z,2.62
2023-02-04T19:39:33.948Z,2.54
2023-02-04T19:42:30.168Z,2.67
2023-02-04T19:45:25.509Z,2.55
2023-02-04T19:48:34.730Z,2.59
2023-02-04T19:51:26.126Z,2.34
2023-02-04T19:54:23.175Z,2.18
2023-02-04T19:57:21.137Z,2.27
2023-02-04T20:00:28.643Z,2.39
2023-02-04T20:03:45.246Z,2.34
2023-02-04T20:06:37.577Z,2.30
2023-02-04T20:09:25.342Z,2.29
2023-02-04T20:12:18.509Z,2.35
2023-02-04T21:24:50.610Z,1.33
